Time,TemperatureF,DewpointF,PressureIn,WindDirection,WindDirectionDegrees,WindSpeedMPH,WindSpeedGustMPH,Humidity,HourlyPrecipIn,Conditions,Clouds,dailyrainin,SoftwareType,DateUTC
2013-11-09 02:11:00,37.8,26.3,30.31,WNW,292,3.8,6.0,63,0.00,,,0.00,pywws,2013-11-09 07:11:00,
2013-11-09 02:16:00,37.6,26.1,30.31,WSW,248,3.1,4.5,63,0.00,,,0.00,pywws,2013-11-09 07:16:00,
2013-11-09 02:21:00,37.6,26.1,30.31,West,270,2.2,3.8,63,0.00,,,0.00,pywws,2013-11-09 07:21:00,
2013-11-09 02:26:00,37.4,26.0,30.31,SW,225,4.5,7.6,63,0.00,,,0.00,pywws,2013-11-09 07:26:00,
2013-11-09 02:31:00,37.4,26.0,30.31,NW,315,2.2,5.4,63,0.00,,,0.00,pywws,2013-11-09 07:31:00,
2013-11-09 02:36:00,37.4,26.0,30.31,SW,225,2.2,4.5,63,0.00,,,0.00,pywws,2013-11-09 07:36:00,
2013-11-09 02:41:00,37.2,24.2,30.31,West,270,1.6,2.2,59,0.00,,,0.00,pywws,2013-11-09 07:41:00,
2013-11-09 02:46:00,37.2,24.2,30.32,SW,225,2.2,3.8,59,0.00,,,0.00,pywws,2013-11-09 07:46:00,
2013-11-09 02:51:00,37.2,24.2,30.32,North,0,1.6,3.1,59,0.00,,,0.00,pywws,2013-11-09 07:51:00,
2013-11-09 02:56:00,37.0,24.1,30.32,West,270,1.6,3.8,59,0.00,,,0.00,pywws,2013-11-09 07:56:00,
2013-11-09 03:01:00,37.0,24.5,30.32,NW,315,1.6,3.1,60,0.00,,,0.00,pywws,2013-11-09 08:01:00,
2013-11-09 03:06:00,36.9,24.3,30.32,West,270,0.0,1.6,60,0.00,,,0.00,pywws,2013-11-09 08:06:00,
2013-11-09 03:11:00,36.9,24.3,30.32,SW,225,0.0,0.7,60,0.00,,,0.00,pywws,2013-11-09 08:11:00,
2013-11-09 03:16:00,36.7,24.5,30.32,West,270,0.0,0.0,61,0.00,,,0.00,pywws,2013-11-09 08:16:00,
2013-11-09 03:21:00,36.3,24.2,30.32,SW,225,0.0,0.0,61,0.00,,,0.00,pywws,2013-11-09 08:21:00,
2013-11-09 03:26:00,36.1,24.0,30.32,SW,225,0.0,0.0,61,0.00,,,0.00,pywws,2013-11-09 08:26:00,
2013-11-09 03:31:00,35.8,24.1,30.32,North,0,0.0,0.7,62,0.00,,,0.00,pywws,2013-11-09 08:31:00,
2013-11-09 03:36:00,35.6,23.9,30.32,SW,225,0.0,0.0,62,0.00,,,0.00,pywws,2013-11-09 08:36:00,
2013-11-09 03:41:00,35.4,24.1,30.32,West,270,0.0,0.7,63,0.00,,,0.00,pywws,2013-11-09 08:41:00,
2013-11-09 03:46:00,35.2,24.3,30.32,SW,225,1.6,2.2,64,0.00,,,0.00,pywws,2013-11-09 08:46:00,
2013-11-09 03:51:00,35.1,24.1,30.32,SW,225,3.8,7.6,64,0.00,,,0.00,pywws,2013-11-09 08:51:00,
2013-11-09 03:56:00,35.2,24.7,30.33,West,270,0.0,0.0,65,0.00,,,0.00,pywws,2013-11-09 08:56:00,
2013-11-09 04:01:00,35.2,24.7,30.32,SW,225,0.7,1.6,65,0.00,,,0.00,pywws,2013-11-09 09:01:00,
2013-11-09 04:06:00,35.4,24.8,30.32,West,270,2.2,3.8,65,0.00,,,0.00,pywws,2013-11-09 09:06:00,
2013-11-09 04:11:00,35.6,24.6,30.33,WSW,248,0.7,2.2,64,0.00,,,0.00,pywws,2013-11-09 09:11:00,
2013-11-09 04:16:00,35.6,24.6,30.33,West,270,2.2,4.5,64,0.00,,,0.00,pywws,2013-11-09 09:16:00,
2013-11-09 04:21:00,35.6,24.6,30.33,West,270,3.1,5.4,64,0.00,,,0.00,pywws,2013-11-09 09:21:00,
2013-11-09 04:26:00,35.6,24.6,30.33,NW,315,3.1,4.5,64,0.00,,,0.00,pywws,2013-11-09 09:26:00,
2013-11-09 04:31:00,35.8,24.8,30.33,West,270,3.1,5.4,64,0.00,,,0.00,pywws,2013-11-09 09:31:00,
2013-11-09 04:36:00,35.8,24.8,30.34,SW,225,2.2,3.8,64,0.00,,,0.00,pywws,2013-11-09 09:36:00,
2013-11-09 04:41:00,35.8,24.8,30.34,SW,225,0.7,2.2,64,0.00,,,0.00,pywws,2013-11-09 09:41:00,
2013-11-09 04:46:00,35.8,24.8,30.33,WNW,292,3.1,4.5,64,0.00,,,0.00,pywws,2013-11-09 09:46:00,
2013-11-09 04:51:00,35.8,24.8,30.34,West,270,2.2,3.8,64,0.00,,,0.00,pywws,2013-11-09 09:51:00,
2013-11-09 04:56:00,35.8,25.2,30.34,West,270,1.6,3.1,65,0.00,,,0.00,pywws,2013-11-09 09:56:00,
2013-11-09 05:01:00,35.8,25.2,30.34,NW,315,2.2,3.1,65,0.00,,,0.00,pywws,2013-11-09 10:01:00,
2013-11-09 05:06:00,35.8,25.2,30.33,West,270,3.1,4.5,65,0.00,,,0.00,pywws,2013-11-09 10:06:00,
2013-11-09 05:11:00,35.6,25.0,30.33,NW,315,0.7,2.2,65,0.00,,,0.00,pywws,2013-11-09 10:11:00,
2013-11-09 05:16:00,35.6,25.0,30.34,West,270,1.6,2.2,65,0.00,,,0.00,pywws,2013-11-09 10:16:00,
2013-11-09 05:21:00,35.4,25.2,30.34,SW,225,1.6,2.2,66,0.00,,,0.00,pywws,2013-11-09 10:21:00,
2013-11-09 05:26:00,35.2,25.0,30.34,West,270,1.6,2.2,66,0.00,,,0.00,pywws,2013-11-09 10:26:00,
2013-11-09 05:31:00,35.1,24.9,30.34,SW,225,1.6,2.2,66,0.00,,,0.00,pywws,2013-11-09 10:31:00,
2013-11-09 05:36:00,35.1,24.9,30.34,SW,225,1.6,2.2,66,0.00,,,0.00,pywws,2013-11-09 10:36:00,
2013-11-09 05:41:00,34.7,24.9,30.34,NW,315,2.2,3.8,67,0.00,,,0.00,pywws,2013-11-09 10:41:00,
2013-11-09 05:46:00,34.5,24.7,30.34,SW,225,1.6,2.2,67,0.00,,,0.00,pywws,2013-11-09 10:46:00,
2013-11-09 05:51:00,34.3,24.5,30.34,West,270,3.1,3.8,67,0.00,,,0.00,pywws,2013-11-09 10:51:00,
2013-11-09 05:56:00,34.2,24.7,30.34,West,270,3.8,6.0,68,0.00,,,0.00,pywws,2013-11-09 10:56:00,
2013-11-09 06:01:00,34.2,24.7,30.35,SW,225,2.2,3.8,68,0.00,,,0.00,pywws,2013-11-09 11:01:00,
2013-11-09 06:06:00,34.0,24.5,30.35,SW,225,0.7,2.2,68,0.00,,,0.00,pywws,2013-11-09 11:06:00,
2013-11-09 06:11:00,34.0,24.5,30.35,West,270,1.6,3.8,68,0.00,,,0.00,pywws,2013-11-09 11:11:00,
2013-11-09 06:16:00,34.0,24.5,30.35,West,270,0.7,2.2,68,0.00,,,0.00,pywws,2013-11-09 11:16:00,
2013-11-09 06:21:00,34.0,24.5,30.35,SW,225,0.0,0.0,68,0.00,,,0.00,pywws,2013-11-09 11:21:00,
2013-11-09 06:26:00,33.8,24.7,30.35,SW,225,0.0,0.0,69,0.00,,,0.00,pywws,2013-11-09 11:26:00,
2013-11-09 06:31:00,33.8,24.7,30.35,SW,225,0.0,0.0,69,0.00,,,0.00,pywws,2013-11-09 11:31:00,
2013-11-09 06:36:00,33.6,24.9,30.35,SW,225,0.0,0.0,70,0.00,,,0.00,pywws,2013-11-09 11:36:00,
2013-11-09 06:41:00,33.4,24.7,30.36,SW,225,0.0,0.0,70,0.00,,,0.00,pywws,2013-11-09 11:41:00,
2013-11-09 06:46:00,33.3,24.9,30.36,SW,225,0.0,0.0,71,0.00,,,0.00,pywws,2013-11-09 11:46:00,
2013-11-09 06:51:00,33.3,24.9,30.36,SW,225,0.0,0.0,71,0.00,,,0.00,pywws,2013-11-09 11:51:00,
2013-11-09 06:56:00,33.1,25.1,30.35,SW,225,0.0,0.0,72,0.00,,,0.00,pywws,2013-11-09 11:56:00,
2013-11-09 07:01:00,33.1,25.1,30.35,SW,225,0.0,0.0,72,0.00,,,0.00,pywws,2013-11-09 12:01:00,
2013-11-09 07:06:00,33.1,25.4,30.35,West,270,0.0,0.0,73,0.00,,,0.00,pywws,2013-11-09 12:06:00,
2013-11-09 07:11:00,33.3,25.6,30.35,SW,225,0.0,0.0,73,0.00,,,0.00,pywws,2013-11-09 12:11:00,
2013-11-09 07:16:00,33.4,25.7,30.35,West,270,0.0,0.0,73,0.00,,,0.00,pywws,2013-11-09 12:16:00,
2013-11-09 07:21:00,33.6,25.9,30.35,NW,315,1.6,2.2,73,0.00,,,0.00,pywws,2013-11-09 12:21:00,
2013-11-09 07:26:00,33.8,25.7,30.36,West,270,0.7,1.6,72,0.00,,,0.00,pywws,2013-11-09 12:26:00,
2013-11-09 07:31:00,34.0,25.9,30.36,West,270,1.6,3.1,72,0.00,,,0.00,pywws,2013-11-09 12:31:00,
2013-11-09 07:36:00,34.3,26.3,30.36,West,270,1.6,2.2,72,0.00,,,0.00,pywws,2013-11-09 12:36:00,
2013-11-09 07:41:00,34.5,26.4,30.36,West,270,0.7,1.6,72,0.00,,,0.00,pywws,2013-11-09 12:41:00,
2013-11-09 07:46:00,34.9,26.4,30.36,West,270,0.7,2.2,71,0.00,,,0.00,pywws,2013-11-09 12:46:00,
2013-11-09 07:51:00,35.2,26.8,30.36,NW,315,0.7,3.1,71,0.00,,,0.00,pywws,2013-11-09 12:51:00,
2013-11-09 07:56:00,35.8,26.6,30.36,WSW,248,0.7,3.1,69,0.00,,,0.00,pywws,2013-11-09 12:56:00,
2013-11-09 08:01:00,36.5,27.3,30.36,North,0,2.2,4.5,69,0.00,,,0.00,pywws,2013-11-09 13:01:00,
2013-11-09 08:06:00,37.2,27.3,30.37,NNW,338,3.8,5.4,67,0.00,,,0.00,pywws,2013-11-09 13:06:00,
2013-11-09 08:11:00,37.8,28.9,30.37,West,270,1.6,3.8,70,0.00,,,0.00,pywws,2013-11-09 13:11:00,
2013-11-09 08:16:00,38.1,29.2,30.36,West,270,2.2,3.8,70,0.00,,,0.00,pywws,2013-11-09 13:16:00,
2013-11-09 08:21:00,38.3,29.0,30.37,West,270,2.2,4.5,69,0.00,,,0.00,pywws,2013-11-09 13:21:00,
2013-11-09 08:26:00,38.7,29.4,30.36,NW,315,3.1,4.5,69,0.00,,,0.00,pywws,2013-11-09 13:26:00,
2013-11-09 08:31:00,39.0,29.4,30.36,NNW,338,1.6,3.8,68,0.00,,,0.00,pywws,2013-11-09 13:31:00,
2013-11-09 08:36:00,39.4,29.3,30.36,West,270,5.4,8.3,67,0.00,,,0.00,pywws,2013-11-09 13:36:00,
2013-11-09 08:41:00,39.9,29.5,30.35,NW,315,3.8,4.5,66,0.00,,,0.00,pywws,2013-11-09 13:41:00,
2013-11-09 08:46:00,40.3,29.5,30.35,WSW,248,0.7,2.2,65,0.00,,,0.00,pywws,2013-11-09 13:46:00,
2013-11-09 08:51:00,40.6,29.8,30.34,NW,315,3.1,5.4,65,0.00,,,0.00,pywws,2013-11-09 13:51:00,
2013-11-09 08:56:00,40.8,30.0,30.35,WNW,292,4.5,5.4,65,0.00,,,0.00,pywws,2013-11-09 13:56:00,
2013-11-09 09:01:00,41.0,29.8,30.35,NW,315,3.1,5.4,64,0.00,,,0.00,pywws,2013-11-09 14:01:00,
2013-11-09 09:06:00,41.2,29.6,30.36,West,270,6.0,7.6,63,0.00,,,0.00,pywws,2013-11-09 14:06:00,
2013-11-09 09:11:00,41.5,30.3,30.36,NW,315,3.8,5.4,64,0.00,,,0.00,pywws,2013-11-09 14:11:00,
2013-11-09 09:16:00,41.7,30.1,30.36,West,270,5.4,6.9,63,0.00,,,0.00,pywws,2013-11-09 14:16:00,
2013-11-09 09:21:00,41.9,29.8,30.36,NW,315,3.8,5.4,62,0.00,,,0.00,pywws,2013-11-09 14:21:00,
2013-11-09 09:26:00,41.7,29.3,30.35,NW,315,2.2,5.4,61,0.00,,,0.00,pywws,2013-11-09 14:26:00,
2013-11-09 09:31:00,41.7,29.7,30.36,West,270,3.1,5.4,62,0.00,,,0.00,pywws,2013-11-09 14:31:00,
2013-11-09 09:36:00,41.7,30.1,30.35,West,270,3.8,6.0,63,0.00,,,0.00,pywws,2013-11-09 14:36:00,
2013-11-09 09:41:00,41.7,30.1,30.36,West,270,3.8,6.0,63,0.00,,,0.00,pywws,2013-11-09 14:41:00,
2013-11-09 09:46:00,41.9,30.2,30.36,WSW,248,0.7,2.2,63,0.00,,,0.00,pywws,2013-11-09 14:46:00,
2013-11-09 09:51:00,41.9,30.2,30.35,East,90,3.1,5.4,63,0.00,,,0.00,pywws,2013-11-09 14:51:00,
2013-11-09 09:56:00,41.9,30.2,30.35,NW,315,3.8,6.9,63,0.00,,,0.00,pywws,2013-11-09 14:56:00,
2013-11-09 10:01:00,42.1,30.4,30.35,NW,315,3.1,5.4,63,0.00,,,0.00,pywws,2013-11-09 15:01:00,
2013-11-09 10:06:00,42.1,30.0,30.35,NW,315,1.6,3.1,62,0.00,,,0.00,pywws,2013-11-09 15:06:00,
2013-11-09 10:11:00,42.3,30.6,30.35,NW,315,3.1,6.0,63,0.00,,,0.00,pywws,2013-11-09 15:11:00,
2013-11-09 10:16:00,42.3,30.2,30.35,NW,315,3.1,3.8,62,0.00,,,0.00,pywws,2013-11-09 15:16:00,
2013-11-09 10:21:00,42.4,30.4,30.34,NW,315,3.8,6.9,62,0.00,,,0.00,pywws,2013-11-09 15:21:00,
2013-11-09 10:26:00,42.4,30.0,30.34,SW,225,3.8,5.4,61,0.00,,,0.00,pywws,2013-11-09 15:26:00,
2013-11-09 10:31:00,42.6,30.5,30.35,NW,315,3.8,6.9,62,0.00,,,0.00,pywws,2013-11-09 15:31:00,
2013-11-09 10:36:00,43.0,30.5,30.35,WSW,248,2.2,5.4,61,0.00,,,0.00,pywws,2013-11-09 15:36:00,
2013-11-09 10:41:00,43.2,30.2,30.34,West,270,4.5,6.0,60,0.00,,,0.00,pywws,2013-11-09 15:41:00,
2013-11-09 10:46:00,43.5,30.6,30.34,West,270,2.2,3.8,60,0.00,,,0.00,pywws,2013-11-09 15:46:00,
2013-11-09 10:51:00,43.7,30.3,30.34,WSW,248,4.5,6.9,59,0.00,,,0.00,pywws,2013-11-09 15:51:00,
2013-11-09 10:56:00,43.9,29.6,30.34,NW,315,3.8,7.6,57,0.00,,,0.00,pywws,2013-11-09 15:56:00,
2013-11-09 11:01:00,44.1,29.8,30.34,SW,225,3.1,5.4,57,0.00,,,0.00,pywws,2013-11-09 16:01:00,
2013-11-09 11:06:00,44.1,29.8,30.34,SW,225,1.6,3.8,57,0.00,,,0.00,pywws,2013-11-09 16:06:00,
2013-11-09 11:11:00,44.2,30.0,30.34,WSW,248,4.5,6.9,57,0.00,,,0.00,pywws,2013-11-09 16:11:00,
2013-11-09 11:16:00,44.6,29.9,30.33,NW,315,2.2,3.8,56,0.00,,,0.00,pywws,2013-11-09 16:16:00,
2013-11-09 11:21:00,44.8,29.6,30.33,SW,225,2.2,3.8,55,0.00,,,0.00,pywws,2013-11-09 16:21:00,
2013-11-09 11:26:00,45.0,29.8,30.32,NW,315,5.4,8.3,55,0.00,,,0.00,pywws,2013-11-09 16:26:00,
2013-11-09 11:31:00,45.1,29.5,30.32,NW,315,2.2,4.5,54,0.00,,,0.00,pywws,2013-11-09 16:31:00,
2013-11-09 11:36:00,45.5,29.8,30.32,NW,315,3.8,6.0,54,0.00,,,0.00,pywws,2013-11-09 16:36:00,
2013-11-09 11:41:00,45.7,29.1,30.32,North,0,3.1,5.4,52,0.00,,,0.00,pywws,2013-11-09 16:41:00,
2013-11-09 11:46:00,45.9,29.2,30.30,NNW,338,3.8,5.4,52,0.00,,,0.00,pywws,2013-11-09 16:46:00,
2013-11-09 11:51:00,46.0,29.4,30.30,South,180,2.2,3.8,52,0.00,,,0.00,pywws,2013-11-09 16:51:00,
2013-11-09 11:56:00,46.4,30.2,30.30,NW,315,3.1,6.0,53,0.00,,,0.00,pywws,2013-11-09 16:56:00,
2013-11-09 12:01:00,46.8,29.6,30.30,NW,315,5.4,7.6,51,0.00,,,0.00,pywws,2013-11-09 17:01:00,
2013-11-09 12:06:00,46.8,28.6,30.29,West,270,0.7,1.6,49,0.00,,,0.00,pywws,2013-11-09 17:06:00,
2013-11-09 12:11:00,46.9,28.8,30.29,West,270,4.5,6.9,49,0.00,,,0.00,pywws,2013-11-09 17:11:00,
2013-11-09 12:16:00,47.1,27.9,30.29,North,0,3.1,5.4,47,0.00,,,0.00,pywws,2013-11-09 17:16:00,
2013-11-09 12:21:00,47.7,28.9,30.29,North,0,3.8,5.4,48,0.00,,,0.00,pywws,2013-11-09 17:21:00,
2013-11-09 12:26:00,48.0,28.2,30.28,WSW,248,2.2,3.8,46,0.00,,,0.00,pywws,2013-11-09 17:26:00,
2013-11-09 12:31:00,47.8,27.5,30.28,West,270,3.1,4.5,45,0.00,,,0.00,pywws,2013-11-09 17:31:00,
2013-11-09 12:36:00,47.5,27.7,30.27,WSW,248,4.5,6.9,46,0.00,,,0.00,pywws,2013-11-09 17:36:00,
2013-11-09 12:41:00,48.0,28.8,30.28,North,0,3.1,5.4,47,0.00,,,0.00,pywws,2013-11-09 17:41:00,
2013-11-09 12:46:00,48.9,28.5,30.28,NE,45,4.5,6.9,45,0.00,,,0.00,pywws,2013-11-09 17:46:00,
2013-11-09 12:51:00,49.3,28.3,30.28,SW,225,3.8,5.4,44,0.00,,,0.00,pywws,2013-11-09 17:51:00,
2013-11-09 12:56:00,49.5,28.5,30.27,SE,135,3.1,6.0,44,0.00,,,0.00,pywws,2013-11-09 17:56:00,
2013-11-09 13:01:00,50.0,28.4,30.27,South,180,1.6,3.8,43,0.00,,,0.00,pywws,2013-11-09 18:01:00,
2013-11-09 13:06:00,50.4,28.7,30.27,East,90,2.2,3.1,43,0.00,,,0.00,pywws,2013-11-09 18:06:00,
2013-11-09 13:11:00,50.4,28.7,30.27,SW,225,9.8,12.1,43,0.00,,,0.00,pywws,2013-11-09 18:11:00,
2013-11-09 13:16:00,50.4,28.1,30.26,West,270,3.8,6.0,42,0.00,,,0.00,pywws,2013-11-09 18:16:00,
2013-11-09 13:21:00,50.2,27.4,30.26,South,180,5.4,7.6,41,0.00,,,0.00,pywws,2013-11-09 18:21:00,
2013-11-09 13:26:00,50.2,28.0,30.26,NW,315,5.4,6.9,42,0.00,,,0.00,pywws,2013-11-09 18:26:00,
2013-11-09 13:31:00,50.5,28.9,30.26,SW,225,5.4,6.9,43,0.00,,,0.00,pywws,2013-11-09 18:31:00,
2013-11-09 13:36:00,50.5,28.9,30.25,SW,225,2.2,3.8,43,0.00,,,0.00,pywws,2013-11-09 18:36:00,
2013-11-09 13:41:00,50.5,28.9,30.25,North,-999,2.2,5.4,43,0.00,,,0.00,pywws,2013-11-09 18:41:00,
2013-11-09 13:46:00,50.5,28.9,30.25,SW,225,3.1,4.5,43,0.00,,,0.00,pywws,2013-11-09 18:46:00,
2013-11-09 13:51:00,50.5,28.3,30.24,SW,225,1.6,3.8,42,0.00,,,0.00,pywws,2013-11-09 18:51:00,
2013-11-09 13:56:00,50.4,28.7,30.24,West,270,1.6,3.8,43,0.00,,,0.00,pywws,2013-11-09 18:56:00,
2013-11-09 14:01:00,50.2,28.6,30.24,West,270,3.8,6.9,43,0.00,,,0.00,pywws,2013-11-09 19:01:00,
2013-11-09 14:06:00,50.2,28.0,30.23,South,180,6.0,9.2,42,0.00,,,0.00,pywws,2013-11-09 19:06:00,
2013-11-09 14:11:00,50.0,27.8,30.23,SW,225,3.1,4.5,42,0.00,,,0.00,pywws,2013-11-09 19:11:00,
2013-11-09 14:16:00,50.2,28.6,30.22,SW,225,4.5,6.9,43,0.00,,,0.00,pywws,2013-11-09 19:16:00,
2013-11-09 14:21:00,50.5,28.3,30.22,SW,225,3.8,5.4,42,0.00,,,0.00,pywws,2013-11-09 19:21:00,
2013-11-09 14:26:00,50.5,27.7,30.22,WSW,248,7.6,11.4,41,0.00,,,0.00,pywws,2013-11-09 19:26:00,
2013-11-09 14:31:00,50.4,27.6,30.22,WSW,248,4.5,6.9,41,0.00,,,0.00,pywws,2013-11-09 19:31:00,
2013-11-09 14:36:00,50.0,27.2,30.22,WSW,248,3.1,4.5,41,0.00,,,0.00,pywws,2013-11-09 19:36:00,
2013-11-09 14:41:00,49.8,27.7,30.22,SW,225,3.8,7.6,42,0.00,,,0.00,pywws,2013-11-09 19:41:00,
2013-11-09 14:46:00,49.8,27.7,30.22,SW,225,5.4,6.9,42,0.00,,,0.00,pywws,2013-11-09 19:46:00,
2013-11-09 14:51:00,49.6,27.5,30.21,SW,225,6.0,9.8,42,0.00,,,0.00,pywws,2013-11-09 19:51:00,
2013-11-09 14:56:00,49.5,27.9,30.21,South,180,5.4,7.6,43,0.00,,,0.00,pywws,2013-11-09 19:56:00,
2013-11-09 15:01:00,49.3,27.7,30.20,SSE,158,2.2,3.8,43,0.00,,,0.00,pywws,2013-11-09 20:01:00,
2013-11-09 15:06:00,49.3,27.7,30.20,South,180,3.1,5.4,43,0.00,,,0.00,pywws,2013-11-09 20:06:00,
2013-11-09 15:11:00,49.3,28.3,30.20,South,180,3.8,6.9,44,0.00,,,0.00,pywws,2013-11-09 20:11:00,
2013-11-09 15:16:00,49.3,28.3,30.20,West,270,6.0,9.8,44,0.00,,,0.00,pywws,2013-11-09 20:16:00,
2013-11-09 15:21:00,49.3,28.3,30.20,SSE,158,3.1,5.4,44,0.00,,,0.00,pywws,2013-11-09 20:21:00,
2013-11-09 15:26:00,49.3,28.3,30.20,SW,225,3.1,4.5,44,0.00,,,0.00,pywws,2013-11-09 20:26:00,
2013-11-09 15:31:00,49.3,28.3,30.19,SSE,158,3.1,4.5,44,0.00,,,0.00,pywws,2013-11-09 20:31:00,
2013-11-09 15:36:00,49.3,28.3,30.19,East,90,1.6,3.8,44,0.00,,,0.00,pywws,2013-11-09 20:36:00,
2013-11-09 15:41:00,49.1,28.1,30.20,SW,225,4.5,9.2,44,0.00,,,0.00,pywws,2013-11-09 20:41:00,
2013-11-09 15:46:00,49.1,28.1,30.20,SSE,158,1.6,4.5,44,0.00,,,0.00,pywws,2013-11-09 20:46:00,
2013-11-09 15:51:00,48.9,28.5,30.20,NW,315,2.2,3.8,45,0.00,,,0.00,pywws,2013-11-09 20:51:00,
2013-11-09 15:56:00,48.7,27.8,30.19,South,180,3.8,6.0,44,0.00,,,0.00,pywws,2013-11-09 20:56:00,
2013-11-09 16:01:00,48.7,28.4,30.19,WSW,248,5.4,7.6,45,0.00,,,0.00,pywws,2013-11-09 21:01:00,
2013-11-09 16:06:00,48.6,27.6,30.19,SW,225,6.0,9.2,44,0.00,,,0.00,pywws,2013-11-09 21:06:00,
2013-11-09 16:11:00,48.6,27.6,30.19,South,180,4.5,7.6,44,0.00,,,0.00,pywws,2013-11-09 21:11:00,
2013-11-09 16:16:00,48.6,27.6,30.19,SSW,202,2.2,4.5,44,0.00,,,0.00,pywws,2013-11-09 21:16:00,
2013-11-09 16:21:00,48.4,28.0,30.19,West,270,6.0,9.2,45,0.00,,,0.00,pywws,2013-11-09 21:21:00,
2013-11-09 16:26:00,48.4,28.0,30.19,SSW,202,4.5,6.0,45,0.00,,,0.00,pywws,2013-11-09 21:26:00,
2013-11-09 16:31:00,48.2,27.9,30.19,South,180,1.6,2.2,45,0.00,,,0.00,pywws,2013-11-09 21:31:00,
2013-11-09 16:36:00,48.2,27.9,30.19,South,180,3.8,6.0,45,0.00,,,0.00,pywws,2013-11-09 21:36:00,
2013-11-09 16:41:00,48.0,28.2,30.19,SW,225,1.6,2.2,46,0.00,,,0.00,pywws,2013-11-09 21:41:00,
2013-11-09 16:46:00,47.8,28.1,30.19,SW,225,2.2,4.5,46,0.00,,,0.00,pywws,2013-11-09 21:46:00,
2013-11-09 16:51:00,47.8,28.1,30.18,SW,225,3.8,6.9,46,0.00,,,0.00,pywws,2013-11-09 21:51:00,
2013-11-09 16:56:00,47.8,28.1,30.19,West,270,4.5,6.0,46,0.00,,,0.00,pywws,2013-11-09 21:56:00,
2013-11-09 17:01:00,47.8,28.1,30.19,NW,315,3.8,8.3,46,0.00,,,0.00,pywws,2013-11-09 22:01:00,
2013-11-09 17:06:00,47.7,27.9,30.18,South,180,3.1,7.6,46,0.00,,,0.00,pywws,2013-11-09 22:06:00,
2013-11-09 17:11:00,47.7,27.9,30.19,South,180,2.2,3.1,46,0.00,,,0.00,pywws,2013-11-09 22:11:00,
2013-11-09 17:16:00,47.7,27.9,30.18,South,180,1.6,3.1,46,0.00,,,0.00,pywws,2013-11-09 22:16:00,
2013-11-09 17:21:00,47.7,27.9,30.18,SW,225,3.1,3.8,46,0.00,,,0.00,pywws,2013-11-09 22:21:00,
2013-11-09 17:26:00,47.5,27.7,30.19,SW,225,2.2,3.8,46,0.00,,,0.00,pywws,2013-11-09 22:26:00,
2013-11-09 17:31:00,47.5,27.7,30.18,South,180,4.5,6.9,46,0.00,,,0.00,pywws,2013-11-09 22:31:00,
2013-11-09 17:36:00,47.5,27.7,30.19,SW,225,5.4,8.3,46,0.00,,,0.00,pywws,2013-11-09 22:36:00,
2013-11-09 17:41:00,47.5,27.7,30.18,SSW,202,2.2,5.4,46,0.00,,,0.00,pywws,2013-11-09 22:41:00,
2013-11-09 17:46:00,47.5,28.3,30.18,SW,225,2.2,6.0,47,0.00,,,0.00,pywws,2013-11-09 22:46:00,
2013-11-09 17:51:00,47.5,28.3,30.18,SW,225,3.8,6.0,47,0.00,,,0.00,pywws,2013-11-09 22:51:00,
2013-11-09 17:56:00,47.3,28.1,30.19,SW,225,3.8,7.6,47,0.00,,,0.00,pywws,2013-11-09 22:56:00,
2013-11-09 18:01:00,47.3,28.1,30.19,South,180,3.1,4.5,47,0.00,,,0.00,pywws,2013-11-09 23:01:00,
2013-11-09 18:06:00,47.3,28.1,30.19,SW,225,5.4,9.8,47,0.00,,,0.00,pywws,2013-11-09 23:06:00,
2013-11-09 18:11:00,47.3,28.1,30.19,SW,225,4.5,5.4,47,0.00,,,0.00,pywws,2013-11-09 23:11:00,
2013-11-09 18:16:00,47.3,28.1,30.19,South,180,1.6,3.8,47,0.00,,,0.00,pywws,2013-11-09 23:16:00,
2013-11-09 18:21:00,47.3,28.1,30.19,South,180,3.8,5.4,47,0.00,,,0.00,pywws,2013-11-09 23:21:00,
2013-11-09 18:26:00,47.3,28.1,30.18,South,180,2.2,4.5,47,0.00,,,0.00,pywws,2013-11-09 23:26:00,
2013-11-09 18:31:00,47.3,28.1,30.18,South,180,3.1,4.5,47,0.00,,,0.00,pywws,2013-11-09 23:31:00,
2013-11-09 18:36:00,47.1,27.9,30.18,SE,135,0.7,1.6,47,0.00,,,0.00,pywws,2013-11-09 23:36:00,
2013-11-09 18:41:00,47.1,28.4,30.18,South,180,1.6,3.1,48,0.00,,,0.00,pywws,2013-11-09 23:41:00,
2013-11-09 18:46:00,47.1,27.9,30.18,SW,225,3.1,4.5,47,0.00,,,0.00,pywws,2013-11-09 23:46:00,
2013-11-09 18:51:00,46.9,28.3,30.17,South,180,3.8,6.9,48,0.00,,,0.00,pywws,2013-11-09 23:51:00,
2013-11-09 18:56:00,46.9,27.8,30.17,South,180,2.2,4.5,47,0.00,,,0.00,pywws,2013-11-09 23:56:00,
2013-11-09 19:01:00,46.9,27.8,30.17,SW,225,4.5,5.4,47,0.00,,,0.00,pywws,2013-11-10 00:01:00,
2013-11-09 19:06:00,46.9,28.3,30.17,WSW,248,3.1,5.4,48,0.00,,,0.00,pywws,2013-11-10 00:06:00,
2013-11-09 19:11:00,46.9,28.3,30.17,SE,135,2.2,3.1,48,0.00,,,0.00,pywws,2013-11-10 00:11:00,
2013-11-09 19:16:00,46.9,28.3,30.17,SW,225,4.5,6.9,48,0.00,,,0.00,pywws,2013-11-10 00:16:00,
2013-11-09 19:21:00,47.1,28.4,30.17,South,180,3.1,6.0,48,0.00,,,0.00,pywws,2013-11-10 00:21:00,
2013-11-09 19:26:00,47.1,28.4,30.17,South,180,3.1,4.5,48,0.00,,,0.00,pywws,2013-11-10 00:26:00,
2013-11-09 19:31:00,46.9,28.3,30.17,SW,225,4.5,6.0,48,0.00,,,0.00,pywws,2013-11-10 00:31:00,
2013-11-09 19:36:00,47.1,28.4,30.16,South,180,1.6,2.2,48,0.00,,,0.00,pywws,2013-11-10 00:36:00,
2013-11-09 19:41:00,46.9,28.8,30.16,SE,135,2.2,3.8,49,0.00,,,0.00,pywws,2013-11-10 00:41:00,
2013-11-09 19:46:00,46.9,28.8,30.17,SW,225,3.8,7.6,49,0.00,,,0.00,pywws,2013-11-10 00:46:00,
2013-11-09 19:51:00,46.8,29.1,30.16,South,180,2.2,4.5,50,0.00,,,0.00,pywws,2013-11-10 00:51:00,
2013-11-09 19:56:00,46.8,29.6,30.16,North,-999,5.4,9.2,51,0.00,,,0.00,pywws,2013-11-10 00:56:00,
2013-11-09 20:01:00,46.8,29.6,30.16,South,180,2.2,3.1,51,0.00,,,0.00,pywws,2013-11-10 01:01:00,
2013-11-09 20:06:00,46.8,29.6,30.17,SW,225,4.5,8.3,51,0.00,,,0.00,pywws,2013-11-10 01:06:00,
2013-11-09 20:11:00,46.8,29.6,30.17,SW,225,3.8,6.9,51,0.00,,,0.00,pywws,2013-11-10 01:11:00,
2013-11-09 20:16:00,46.8,29.6,30.17,South,180,4.5,6.9,51,0.00,,,0.00,pywws,2013-11-10 01:16:00,
2013-11-09 20:21:00,46.8,29.6,30.17,SW,225,4.5,7.6,51,0.00,,,0.00,pywws,2013-11-10 01:21:00,
2013-11-09 20:26:00,46.8,29.6,30.16,SW,225,6.9,9.8,51,0.00,,,0.00,pywws,2013-11-10 01:26:00,
2013-11-09 20:31:00,46.9,29.8,30.16,South,180,3.8,8.3,51,0.00,,,0.00,pywws,2013-11-10 01:31:00,
2013-11-09 20:36:00,46.9,29.8,30.16,SSW,202,5.4,6.9,51,0.00,,,0.00,pywws,2013-11-10 01:36:00,
2013-11-09 20:41:00,46.9,30.2,30.16,South,180,3.8,7.6,52,0.00,,,0.00,pywws,2013-11-10 01:41:00,
2013-11-09 20:46:00,46.9,30.2,30.16,NW,315,3.8,6.9,52,0.00,,,0.00,pywws,2013-11-10 01:46:00,
2013-11-09 20:51:00,46.9,30.2,30.16,South,180,2.2,3.1,52,0.00,,,0.00,pywws,2013-11-10 01:51:00,
2013-11-09 20:56:00,46.9,30.7,30.16,South,180,3.1,4.5,53,0.00,,,0.00,pywws,2013-11-10 01:56:00,
2013-11-09 21:01:00,46.9,30.7,30.15,SSE,158,3.1,6.0,53,0.00,,,0.00,pywws,2013-11-10 02:01:00,
2013-11-09 21:06:00,46.9,31.2,30.15,SW,225,6.9,9.2,54,0.00,,,0.00,pywws,2013-11-10 02:06:00,
2013-11-09 21:11:00,46.9,31.2,30.15,South,180,4.5,7.6,54,0.00,,,0.00,pywws,2013-11-10 02:11:00,
2013-11-09 21:16:00,46.8,31.0,30.15,South,180,5.4,8.3,54,0.00,,,0.00,pywws,2013-11-10 02:16:00,
2013-11-09 21:21:00,46.8,31.5,30.14,SW,225,2.2,5.4,55,0.00,,,0.00,pywws,2013-11-10 02:21:00,
2013-11-09 21:26:00,46.8,31.5,30.14,SE,135,3.1,5.4,55,0.00,,,0.00,pywws,2013-11-10 02:26:00,
2013-11-09 21:31:00,46.6,31.3,30.14,SE,135,3.1,6.0,55,0.00,,,0.00,pywws,2013-11-10 02:31:00,
2013-11-09 21:36:00,46.6,31.3,30.14,West,270,2.2,5.4,55,0.00,,,0.00,pywws,2013-11-10 02:36:00,
2013-11-09 21:41:00,46.6,31.3,30.14,West,270,4.5,7.6,55,0.00,,,0.00,pywws,2013-11-10 02:41:00,
2013-11-09 21:46:00,46.4,31.6,30.14,South,180,5.4,6.9,56,0.00,,,0.00,pywws,2013-11-10 02:46:00,
2013-11-09 21:51:00,46.2,31.0,30.14,SE,135,0.0,1.6,55,0.00,,,0.00,pywws,2013-11-10 02:51:00,
2013-11-09 21:56:00,46.0,30.8,30.13,SW,225,4.5,6.0,55,0.00,,,0.00,pywws,2013-11-10 02:56:00,
2013-11-09 22:01:00,45.9,30.6,30.13,SW,225,3.1,4.5,55,0.00,,,0.00,pywws,2013-11-10 03:01:00,
2013-11-09 22:06:00,45.7,30.9,30.13,South,180,2.2,4.5,56,0.00,,,0.00,pywws,2013-11-10 03:06:00,
2013-11-09 22:11:00,45.5,30.7,30.13,South,180,3.1,4.5,56,0.00,,,0.00,pywws,2013-11-10 03:11:00,
2013-11-09 22:16:00,45.3,30.6,30.12,South,180,1.6,3.1,56,0.00,,,0.00,pywws,2013-11-10 03:16:00,
2013-11-09 22:21:00,45.3,31.0,30.12,NW,315,0.0,1.6,57,0.00,,,0.00,pywws,2013-11-10 03:21:00,
2013-11-09 22:26:00,45.1,30.8,30.11,SSW,202,3.1,4.5,57,0.00,,,0.00,pywws,2013-11-10 03:26:00,
2013-11-09 22:31:00,45.1,31.3,30.11,SW,225,0.7,2.2,58,0.00,,,0.00,pywws,2013-11-10 03:31:00,
2013-11-09 22:36:00,45.1,31.3,30.11,South,180,0.7,1.6,58,0.00,,,0.00,pywws,2013-11-10 03:36:00,
2013-11-09 22:41:00,45.1,31.7,30.11,South,180,0.7,1.6,59,0.00,,,0.00,pywws,2013-11-10 03:41:00,
2013-11-09 22:46:00,45.1,31.7,30.11,SW,225,3.1,4.5,59,0.00,,,0.00,pywws,2013-11-10 03:46:00,
2013-11-09 22:51:00,45.3,32.3,30.10,SW,225,3.8,6.9,60,0.00,,,0.00,pywws,2013-11-10 03:51:00,
2013-11-09 22:56:00,45.3,32.3,30.10,ESE,112,1.6,2.2,60,0.00,,,0.00,pywws,2013-11-10 03:56:00,
2013-11-09 23:01:00,45.3,32.3,30.10,SE,135,0.0,1.6,60,0.00,,,0.00,pywws,2013-11-10 04:01:00,
2013-11-09 23:06:00,45.3,32.7,30.09,SW,225,1.6,2.2,61,0.00,,,0.00,pywws,2013-11-10 04:06:00,
2013-11-09 23:11:00,45.3,32.7,30.09,SW,225,0.0,0.7,61,0.00,,,0.00,pywws,2013-11-10 04:11:00,
2013-11-09 23:16:00,45.5,32.8,30.09,SE,135,0.7,2.2,61,0.00,,,0.00,pywws,2013-11-10 04:16:00,
2013-11-09 23:21:00,45.5,32.8,30.09,SW,225,2.2,6.0,61,0.00,,,0.00,pywws,2013-11-10 04:21:00,
2013-11-09 23:26:00,45.5,32.8,30.09,South,180,1.6,3.1,61,0.00,,,0.00,pywws,2013-11-10 04:26:00,
2013-11-09 23:31:00,45.5,32.8,30.09,South,180,3.1,6.0,61,0.00,,,0.00,pywws,2013-11-10 04:31:00,
2013-11-09 23:36:00,45.5,32.8,30.08,South,180,2.2,3.1,61,0.00,,,0.00,pywws,2013-11-10 04:36:00,
2013-11-09 23:41:00,45.5,33.2,30.08,SW,225,2.2,3.8,62,0.00,,,0.00,pywws,2013-11-10 04:41:00,
2013-11-09 23:46:00,45.5,33.2,30.08,South,180,0.0,0.7,62,0.00,,,0.00,pywws,2013-11-10 04:46:00,
2013-11-09 23:51:00,45.5,33.2,30.08,South,180,2.2,4.5,62,0.00,,,0.00,pywws,2013-11-10 04:51:00,
2013-11-09 23:56:00,45.5,33.2,30.07,SSW,202,3.1,4.5,62,0.00,,,0.00,pywws,2013-11-10 04:56:00,